createdAt,value
2023-01-07T00:00:53.065Z,81.40
2023-01-07T00:03:51.844Z,81.80
2023-01-07T00:06:50.434Z,81.50
2023-01-07T00:09:48.279Z,80.90
2023-01-07T00:12:46.191Z,81.20
2023-01-07T00:15:44.098Z,80.30
2023-01-07T00:18:43.016Z,80.10
2023-01-07T00:21:41.317Z,80.20
2023-01-07T00:24:39.256Z,79.70
2023-01-07T00:27:37.078Z,80.50
2023-01-07T00:30:34.844Z,79.90
2023-01-07T00:33:35.592Z,79.70
2023-01-07T00:36:37.437Z,79.30
2023-01-07T00:39:35.224Z,79.50
2023-01-07T00:42:48.252Z,79.70
2023-01-07T00:45:45.891Z,79.20
2023-01-07T00:48:45.348Z,79.60
2023-01-07T00:51:43.165Z,79.40
2023-01-07T00:54:40.867Z,78.60
2023-01-07T00:57:38.766Z,79.10
2023-01-07T01:00:36.539Z,79.00
2023-01-07T01:03:35.157Z,79.70
2023-01-07T01:06:32.852Z,79.00
2023-01-07T01:09:30.692Z,78.70
2023-01-07T01:12:29.184Z,77.90
2023-01-07T01:15:27.594Z,77.70
2023-01-07T01:18:25.460Z,77.00
2023-01-07T01:21:23.353Z,77.50
2023-01-07T01:24:21.559Z,78.90
2023-01-07T01:27:20.389Z,80.30
2023-01-07T01:30:18.206Z,80.50
2023-01-07T01:33:16.660Z,80.80
2023-01-07T01:36:14.477Z,81.00
2023-01-07T01:39:12.522Z,81.00
2023-01-07T01:42:22.260Z,81.30
2023-01-07T01:45:20.107Z,81.70
2023-01-07T01:48:19.101Z,81.90
2023-01-07T01:51:20.338Z,82.00
2023-01-07T01:54:21.141Z,81.50
2023-01-07T01:57:21.475Z,81.70
2023-01-07T02:00:19.254Z,81.80
2023-01-07T02:03:20.914Z,81.30
2023-01-07T02:06:24.834Z,81.10
2023-01-07T02:09:22.917Z,80.80
2023-01-07T02:12:51.346Z,80.70
2023-01-07T02:16:01.283Z,81.20
2023-01-07T02:19:15.861Z,80.30
2023-01-07T02:22:39.408Z,80.10
2023-01-07T02:26:12.275Z,80.60
2023-01-07T02:29:39.009Z,80.80
2023-01-07T02:33:07.372Z,79.80
2023-01-07T02:36:25.032Z,80.20
2023-01-07T02:39:53.394Z,79.70
2023-01-07T02:43:08.115Z,79.30
2023-01-07T02:46:22.457Z,78.60
2023-01-07T02:49:20.381Z,78.90
2023-01-07T02:52:24.744Z,78.40
2023-01-07T02:55:40.197Z,78.20
2023-01-07T02:59:01.375Z,78.60
2023-01-07T03:02:32.082Z,78.90
2023-01-07T03:05:50.174Z,78.80
2023-01-07T03:09:01.559Z,78.80
2023-01-07T03:12:09.127Z,78.90
2023-01-07T03:15:22.927Z,79.40
2023-01-07T03:18:30.141Z,78.30
2023-01-07T03:21:32.070Z,77.70
2023-01-07T03:24:31.888Z,77.50
2023-01-07T03:27:34.034Z,77.40
2023-01-07T03:30:32.458Z,76.40
2023-01-07T03:33:43.352Z,76.20
2023-01-07T03:36:45.317Z,75.70
2023-01-07T03:39:45.574Z,76.10
2023-01-07T03:42:47.602Z,75.80
2023-01-07T03:45:45.956Z,75.50
2023-01-07T03:48:43.624Z,75.10
2023-01-07T03:51:41.598Z,75.60
2023-01-07T03:54:39.403Z,74.80
2023-01-07T03:57:37.930Z,74.70
2023-01-07T04:00:35.700Z,74.70
2023-01-07T04:03:33.577Z,74.90
2023-01-07T04:06:31.703Z,74.60
2023-01-07T04:09:29.499Z,74.20
2023-01-07T04:12:27.346Z,73.00
2023-01-07T04:15:25.341Z,72.40
2023-01-07T04:18:23.201Z,70.60
2023-01-07T04:21:21.096Z,71.10
2023-01-07T04:24:18.951Z,70.40
2023-01-07T04:27:17.024Z,69.50
2023-01-07T04:30:14.798Z,69.00
2023-01-07T04:33:12.773Z,68.00
2023-01-07T04:36:13.652Z,68.50
2023-01-07T04:39:13.014Z,69.50
2023-01-07T04:42:10.727Z,69.00
2023-01-07T04:45:09.204Z,68.90
2023-01-07T04:48:07.437Z,69.80
2023-01-07T04:51:05.701Z,71.10
2023-01-07T04:54:03.521Z,72.60
2023-01-07T04:57:01.504Z,73.00
2023-01-07T04:59:59.292Z,72.60
2023-01-07T05:02:57.136Z,72.20
2023-01-07T05:05:54.873Z,71.50
2023-01-07T05:08:52.845Z,71.40
2023-01-07T05:11:50.576Z,71.40
2023-01-07T05:14:48.441Z,70.60
2023-01-07T05:17:46.542Z,70.60
2023-01-07T05:20:44.475Z,70.00
2023-01-07T05:23:45.886Z,68.60
2023-01-07T05:26:43.812Z,68.90
2023-01-07T05:29:41.533Z,68.20
2023-01-07T05:32:39.336Z,68.20
2023-01-07T05:35:37.151Z,68.40
2023-01-07T05:38:35.030Z,67.80
2023-01-07T05:41:32.768Z,67.20
2023-01-07T05:44:30.766Z,67.30
2023-01-07T05:47:28.503Z,67.10
2023-01-07T05:50:26.547Z,66.40
2023-01-07T05:53:24.622Z,66.40
2023-01-07T05:56:22.943Z,65.90
2023-01-07T05:59:20.660Z,66.70
2023-01-07T06:02:18.527Z,66.80
2023-01-07T06:05:16.875Z,65.80
2023-01-07T06:08:15.037Z,66.00
2023-01-07T06:11:12.979Z,66.10
2023-01-07T06:14:11.143Z,66.40
2023-01-07T06:17:08.827Z,66.10
2023-01-07T06:20:07.598Z,66.70
2023-01-07T06:23:05.538Z,67.20
2023-01-07T06:26:03.510Z,67.50
2023-01-07T06:29:01.432Z,67.50
2023-01-07T06:31:59.499Z,67.60
2023-01-07T06:34:57.294Z,68.10
2023-01-07T06:37:55.719Z,69.30
2023-01-07T06:40:53.466Z,69.90
2023-01-07T06:43:51.319Z,69.70
2023-01-07T06:46:49.125Z,69.40
2023-01-07T06:49:47.092Z,71.40
2023-01-07T06:52:45.021Z,71.60
2023-01-07T06:55:48.127Z,70.90
2023-01-07T06:58:45.925Z,70.50
2023-01-07T07:01:46.316Z,71.20
2023-01-07T07:04:44.946Z,70.80
2023-01-07T07:07:43.072Z,70.00
2023-01-07T07:10:40.930Z,69.10
2023-01-07T07:13:38.910Z,68.10
2023-01-07T07:16:36.818Z,68.30
2023-01-07T07:19:35.068Z,68.90
2023-01-07T07:22:32.961Z,68.30
2023-01-07T07:25:31.067Z,69.60
2023-01-07T07:28:28.805Z,69.90
2023-01-07T07:31:26.802Z,70.20
2023-01-07T07:34:25.182Z,71.40
2023-01-07T07:37:23.214Z,70.50
2023-01-07T07:40:21.106Z,71.30
2023-01-07T07:43:19.096Z,71.40
2023-01-07T07:46:17.119Z,71.00
2023-01-07T07:49:15.425Z,72.50
2023-01-07T07:52:13.347Z,71.90
2023-01-07T07:55:20.436Z,72.00
2023-01-07T07:58:24.619Z,71.20
2023-01-07T08:01:22.800Z,71.30
2023-01-07T08:04:20.629Z,70.90
2023-01-07T08:07:32.727Z,70.40
2023-01-07T08:10:31.868Z,70.60
2023-01-07T08:13:32.147Z,71.10
2023-01-07T08:16:31.114Z,71.40
2023-01-07T08:19:29.151Z,71.00
2023-01-07T08:22:29.617Z,70.60
2023-01-07T08:25:28.955Z,70.80
2023-01-07T08:28:27.053Z,70.70
2023-01-07T08:31:25.112Z,72.00
2023-01-07T08:34:24.980Z,71.30
2023-01-07T08:37:38.457Z,71.80
2023-01-07T08:40:38.040Z,72.20
2023-01-07T08:43:36.705Z,73.50
2023-01-07T08:46:34.985Z,72.70
2023-01-07T08:49:32.974Z,72.50
2023-01-07T08:52:31.170Z,71.90
2023-01-07T08:55:29.225Z,71.40
2023-01-07T08:58:27.212Z,71.40
2023-01-07T09:01:25.217Z,72.10
2023-01-07T09:04:23.044Z,71.10
2023-01-07T09:07:21.190Z,71.60
2023-01-07T09:10:19.285Z,71.10
2023-01-07T09:13:17.329Z,71.40
2023-01-07T09:16:15.857Z,71.70
2023-01-07T09:19:13.808Z,72.30
2023-01-07T09:22:11.748Z,71.70
2023-01-07T09:25:14.829Z,72.20
2023-01-07T09:28:12.781Z,72.40
2023-01-07T09:31:10.861Z,72.40
2023-01-07T09:34:08.790Z,71.90
2023-01-07T09:37:07.741Z,71.80
2023-01-07T09:40:07.243Z,71.50
2023-01-07T09:43:18.373Z,72.10
2023-01-07T09:46:18.684Z,71.80
2023-01-07T09:49:20.147Z,72.00
2023-01-07T09:52:24.915Z,71.80
2023-01-07T09:55:36.868Z,71.80
2023-01-07T09:58:37.049Z,72.30
2023-01-07T10:01:56.182Z,71.70
2023-01-07T10:05:21.784Z,72.30
2023-01-07T10:08:40.083Z,72.00
2023-01-07T10:12:08.442Z,72.10
2023-01-07T10:15:32.238Z,72.20
2023-01-07T10:18:51.006Z,73.20
2023-01-07T10:21:56.767Z,72.80
2023-01-07T10:25:00.103Z,73.20
2023-01-07T10:28:02.039Z,73.10
2023-01-07T10:31:01.837Z,73.30
2023-01-07T10:34:00.781Z,73.40
2023-01-07T10:37:14.744Z,74.10
2023-01-07T10:40:38.882Z,74.60
2023-01-07T10:44:05.605Z,73.60
2023-01-07T10:47:29.957Z,74.30
2023-01-07T10:50:45.167Z,74.40
2023-01-07T10:54:04.256Z,74.70
2023-01-07T10:57:08.661Z,75.00
2023-01-07T11:00:12.320Z,75.10
2023-01-07T11:03:20.824Z,75.20
2023-01-07T11:06:24.078Z,75.60
2023-01-07T11:09:34.333Z,75.90
2023-01-07T11:12:47.611Z,75.50
2023-01-07T11:15:52.846Z,75.70
2023-01-07T11:18:59.083Z,76.40
2023-01-07T11:21:57.008Z,76.40
2023-01-07T11:24:56.757Z,76.80
2023-01-07T11:27:57.485Z,77.20
2023-01-07T11:30:59.794Z,77.40
2023-01-07T11:34:01.425Z,77.80
2023-01-07T11:37:02.287Z,77.50
2023-01-07T11:40:02.549Z,77.30
2023-01-07T11:43:22.010Z,77.60
2023-01-07T11:46:23.396Z,77.80
2023-01-07T11:49:26.884Z,77.70
2023-01-07T11:52:24.601Z,78.80
2023-01-07T11:55:23.866Z,78.20
2023-01-07T11:58:28.213Z,79.80
2023-01-07T12:01:28.261Z,79.90
2023-01-07T12:04:36.308Z,79.90
2023-01-07T12:07:35.541Z,80.00
2023-01-07T12:10:37.056Z,79.70
2023-01-07T12:13:35.795Z,80.50
2023-01-07T12:16:33.992Z,80.60
2023-01-07T12:19:48.255Z,80.80
2023-01-07T12:23:01.290Z,80.80
2023-01-07T12:26:03.887Z,80.30
2023-01-07T12:29:26.998Z,80.80
2023-01-07T12:32:54.760Z,79.90
2023-01-07T12:35:53.951Z,79.90
2023-01-07T12:38:55.968Z,80.30
2023-01-07T12:42:02.474Z,81.60
2023-01-07T12:45:06.401Z,81.80
2023-01-07T12:48:10.912Z,82.20
2023-01-07T12:51:20.156Z,81.60
2023-01-07T12:54:38.346Z,81.30
2023-01-07T12:57:39.878Z,81.60
2023-01-07T13:00:47.444Z,81.50
2023-01-07T13:04:06.314Z,81.80
2023-01-07T13:07:16.747Z,82.10
2023-01-07T13:10:40.668Z,82.10
2023-01-07T13:13:44.474Z,81.80
2023-01-07T13:16:42.379Z,80.50
2023-01-07T13:19:40.252Z,78.80
2023-01-07T13:22:43.735Z,77.60
2023-01-07T13:26:00.516Z,78.30
2023-01-07T13:29:16.300Z,78.60
2023-01-07T13:32:45.956Z,78.70
2023-01-07T13:36:05.467Z,78.50
2023-01-07T13:39:33.806Z,76.80
2023-01-07T13:42:54.299Z,76.00
2023-01-07T13:46:00.441Z,75.40
2023-01-07T13:48:58.537Z,75.40
2023-01-07T13:51:57.769Z,74.90
2023-01-07T13:54:59.784Z,74.40
2023-01-07T13:57:57.835Z,74.70
2023-01-07T14:01:13.902Z,72.70
2023-01-07T14:04:35.552Z,73.10
2023-01-07T14:07:46.622Z,72.10
2023-01-07T14:10:54.287Z,71.30
2023-01-07T14:14:07.610Z,71.00
2023-01-07T14:17:39.183Z,70.60
2023-01-07T14:20:56.385Z,70.10
2023-01-07T14:24:23.497Z,69.90
2023-01-07T14:27:45.183Z,70.80
2023-01-07T14:30:46.506Z,67.70
2023-01-07T14:33:51.545Z,69.10
2023-01-07T14:37:11.907Z,70.00
2023-01-07T14:40:49.005Z,70.60
2023-01-07T14:43:49.033Z,71.60
2023-01-07T14:46:48.506Z,71.00
2023-01-07T14:50:08.864Z,70.80
2023-01-07T14:53:39.023Z,71.40
2023-01-07T14:57:02.402Z,71.40
2023-01-07T15:00:27.868Z,71.70
2023-01-07T15:03:59.079Z,71.20
2023-01-07T15:06:59.353Z,71.40
2023-01-07T15:10:17.657Z,72.20
2023-01-07T15:13:34.329Z,72.00
2023-01-07T15:16:34.906Z,71.40
2023-01-07T15:19:38.766Z,71.60
2023-01-07T15:22:58.539Z,71.90
2023-01-07T15:26:06.112Z,72.00
2023-01-07T15:29:25.468Z,73.80
2023-01-07T15:32:43.189Z,70.90
2023-01-07T15:35:45.195Z,70.30
2023-01-07T15:38:50.885Z,71.40
2023-01-07T15:41:53.641Z,72.10
2023-01-07T15:44:56.915Z,72.00
2023-01-07T15:48:08.604Z,72.20
2023-01-07T15:51:18.279Z,72.40
2023-01-07T15:54:26.830Z,72.70
2023-01-07T15:57:32.707Z,73.80
2023-01-07T16:00:31.290Z,73.60
2023-01-07T16:03:33.752Z,74.40
2023-01-07T16:06:40.004Z,73.30
2023-01-07T16:09:38.037Z,73.30
2023-01-07T16:12:37.767Z,75.80
2023-01-07T16:15:38.232Z,74.40
2023-01-07T16:18:35.994Z,74.80
2023-01-07T16:21:38.365Z,74.80
2023-01-07T16:24:37.084Z,75.10
2023-01-07T16:27:35.091Z,75.70
2023-01-07T16:30:35.063Z,75.70
2023-01-07T16:33:34.885Z,75.30
2023-01-07T16:36:44.514Z,74.50
2023-01-07T16:39:48.122Z,74.70
2023-01-07T16:42:49.211Z,74.70
2023-01-07T16:46:07.684Z,75.10
2023-01-07T16:49:22.223Z,75.50
2023-01-07T16:52:22.790Z,75.60
2023-01-07T16:55:51.732Z,75.40
2023-01-07T16:58:53.540Z,75.70
2023-01-07T17:01:51.830Z,75.60
2023-01-07T17:04:49.903Z,75.50
2023-01-07T17:07:52.965Z,74.80
2023-01-07T17:11:08.782Z,74.60
2023-01-07T17:14:46.129Z,75.20
2023-01-07T17:17:43.988Z,74.90
2023-01-07T17:20:58.567Z,74.80
2023-01-07T17:23:56.540Z,74.70
2023-01-07T17:26:57.239Z,75.00
2023-01-07T17:29:55.560Z,74.40
2023-01-07T17:32:53.586Z,73.80
2023-01-07T17:35:52.620Z,73.60
2023-01-07T17:38:50.512Z,73.50
2023-01-07T17:42:03.899Z,74.10
2023-01-07T17:45:01.852Z,74.50
2023-01-07T17:48:01.703Z,74.80
2023-01-07T17:51:01.822Z,74.80
2023-01-07T17:54:00.156Z,74.80
2023-01-07T17:56:58.032Z,74.90
2023-01-07T17:59:55.987Z,75.20
2023-01-07T18:02:53.962Z,75.70
2023-01-07T18:05:52.187Z,75.00
2023-01-07T18:08:51.321Z,74.90
2023-01-07T18:12:04.684Z,76.10
2023-01-07T18:15:03.749Z,75.60
2023-01-07T18:18:01.563Z,75.70
2023-01-07T18:21:01.861Z,75.70
2023-01-07T18:23:59.683Z,75.30
2023-01-07T18:26:57.389Z,75.40
2023-01-07T18:29:56.115Z,74.70
2023-01-07T18:32:54.329Z,74.70
2023-01-07T18:35:53.557Z,74.60
2023-01-07T18:38:51.325Z,75.10
2023-01-07T18:41:50.654Z,75.10
2023-01-07T18:44:48.408Z,75.70
2023-01-07T18:47:46.715Z,77.50
2023-01-07T18:50:46.641Z,77.20
2023-01-07T18:53:45.116Z,76.80
2023-01-07T18:56:43.547Z,76.50
2023-01-07T18:59:42.093Z,76.60
2023-01-07T19:02:40.148Z,76.20
2023-01-07T19:05:42.148Z,74.90
2023-01-07T19:08:40.479Z,75.30
2023-01-07T19:11:38.889Z,78.30
2023-01-07T19:14:36.668Z,79.40
2023-01-07T19:17:34.594Z,81.00
2023-01-07T19:20:32.332Z,79.10
2023-01-07T19:23:30.739Z,78.80
2023-01-07T19:26:28.732Z,79.00
2023-01-07T19:29:26.845Z,78.30
2023-01-07T19:32:24.865Z,78.60
2023-01-07T19:35:22.715Z,78.10
2023-01-07T19:38:20.396Z,77.90
2023-01-07T19:41:21.183Z,78.00
2023-01-07T19:44:19.408Z,77.90
2023-01-07T19:47:17.808Z,78.10
2023-01-07T19:50:16.590Z,78.70
2023-01-07T19:53:14.401Z,79.00
2023-01-07T19:56:13.774Z,79.30
2023-01-07T19:59:11.839Z,79.70
2023-01-07T20:02:14.222Z,82.90
2023-01-07T20:08:34.504Z,81.70
2023-01-07T20:11:32.395Z,82.50
2023-01-07T20:14:30.171Z,83.20
2023-01-07T20:17:28.135Z,85.50
2023-01-07T20:20:28.988Z,85.60
2023-01-07T20:23:28.104Z,86.10
2023-01-07T20:26:28.841Z,86.90
2023-01-07T20:29:26.768Z,87.20
2023-01-07T20:32:24.549Z,87.70
2023-01-07T20:35:24.371Z,88.50
2023-01-07T20:38:22.142Z,88.30
2023-01-07T20:41:22.226Z,88.70
2023-01-07T20:44:23.101Z,88.70
2023-01-07T20:47:59.596Z,85.90
2023-01-07T20:50:57.568Z,83.60
2023-01-07T20:53:55.665Z,82.00
2023-01-07T20:56:53.412Z,80.80
2023-01-07T20:59:51.341Z,80.40
2023-01-07T21:02:49.107Z,79.30
2023-01-07T21:05:46.933Z,78.60
2023-01-07T21:08:46.130Z,77.90
2023-01-07T21:11:45.120Z,77.40
2023-01-07T21:14:42.818Z,76.50
2023-01-07T21:17:42.030Z,75.50
2023-01-07T21:20:41.447Z,74.30
2023-01-07T21:23:39.685Z,73.50
2023-01-07T21:26:37.460Z,73.30
2023-01-07T21:29:35.317Z,73.60
2023-01-07T21:32:33.710Z,73.50
2023-01-07T21:35:31.859Z,72.00
2023-01-07T21:38:29.620Z,71.60
2023-01-07T21:41:28.988Z,71.40
2023-01-07T21:44:26.780Z,71.00
2023-01-07T21:47:24.783Z,71.00
2023-01-07T21:50:22.855Z,70.90
2023-01-07T21:53:20.851Z,71.40
2023-01-07T21:56:19.556Z,71.90
2023-01-07T21:59:17.495Z,71.60
2023-01-07T22:02:18.174Z,72.10
2023-01-07T22:05:16.029Z,71.70
2023-01-07T22:08:13.711Z,71.70
2023-01-07T22:11:15.243Z,70.60
2023-01-07T22:14:15.933Z,70.00
2023-01-07T22:17:14.533Z,69.70
2023-01-07T22:20:13.081Z,69.00
2023-01-07T22:23:18.186Z,68.60
2023-01-07T22:26:17.857Z,67.70
2023-01-07T22:29:15.864Z,67.10
2023-01-07T22:32:13.575Z,67.00
2023-01-07T22:35:11.398Z,67.40
2023-01-07T22:38:12.388Z,66.90
2023-01-07T22:41:11.336Z,67.10
2023-01-07T22:44:17.133Z,67.50
2023-01-07T22:47:18.354Z,67.60
2023-01-07T22:50:16.583Z,67.00
2023-01-07T22:53:14.513Z,67.70
2023-01-07T22:56:14.135Z,68.60
2023-01-07T22:59:12.351Z,67.80
2023-01-07T23:02:11.588Z,64.10
2023-01-07T23:05:09.600Z,65.70
2023-01-07T23:08:08.129Z,64.70
2023-01-07T23:11:06.955Z,64.00
2023-01-07T23:14:04.737Z,64.40
2023-01-07T23:17:03.745Z,64.00
2023-01-07T23:20:04.111Z,65.10
2023-01-07T23:26:15.598Z,65.80
2023-01-07T23:29:13.613Z,66.10
2023-01-07T23:32:13.127Z,66.40
2023-01-07T23:35:11.559Z,66.10
2023-01-07T23:38:09.364Z,65.50
2023-01-07T23:41:09.865Z,65.50
2023-01-07T23:44:07.873Z,65.50
2023-01-07T23:47:06.221Z,65.60
2023-01-07T23:50:04.515Z,65.50
2023-01-07T23:53:02.432Z,65.50
2023-01-07T23:56:00.430Z,63.90
2023-01-07T23:58:58.447Z,64.20
